createdAt,value
2019-04-22T00:02:17.480Z,83.60
2019-04-22T00:04:59.982Z,83.40
2019-04-22T00:07:44.972Z,84.20
2019-04-22T00:10:21.155Z,84.10
2019-04-22T00:12:57.755Z,84.30
2019-04-22T00:15:16.757Z,84.20
2019-04-22T00:18:11.642Z,84.10
2019-04-22T00:20:22.760Z,84.40
2019-04-22T00:22:52.320Z,84.50
2019-04-22T00:25:26.659Z,85.20
2019-04-22T00:27:56.741Z,85.30
2019-04-22T00:30:20.663Z,83.90
2019-04-22T00:33:03.182Z,84.60
2019-04-22T00:35:33.290Z,84.80
2019-04-22T00:38:26.578Z,82.50
2019-04-22T00:43:06.439Z,82.80
2019-04-22T00:45:40.039Z,83.30
2019-04-22T00:48:09.216Z,84.40
2019-04-22T00:51:01.588Z,83.30
2019-04-22T00:53:16.459Z,75.90
2019-04-22T00:56:10.623Z,79.40
2019-04-22T00:58:40.645Z,80.50
2019-04-22T01:01:17.475Z,81.20
2019-04-22T01:03:51.076Z,82.20
2019-04-22T01:06:16.082Z,82.00
2019-04-22T01:08:56.407Z,82.10
2019-04-22T01:11:16.943Z,82.40
2019-04-22T01:13:44.283Z,83.40
2019-04-22T01:16:18.924Z,83.30
2019-04-22T01:18:48.790Z,83.80
2019-04-22T01:23:49.153Z,84.30
2019-04-22T01:26:15.938Z,84.10
2019-04-22T01:28:46.435Z,85.20
2019-04-22T01:31:08.332Z,84.00
2019-04-22T01:33:41.037Z,85.50
2019-04-22T01:36:24.628Z,84.20
2019-04-22T01:38:58.499Z,84.30
2019-04-22T01:41:42.007Z,84.00
2019-04-22T01:44:15.829Z,83.70
2019-04-22T01:46:42.670Z,83.70
2019-04-22T01:49:07.893Z,83.40
2019-04-22T01:51:48.568Z,84.40
2019-04-22T01:54:12.280Z,83.90
2019-04-22T01:58:59.006Z,84.00
2019-04-22T02:01:46.477Z,84.00
2019-04-22T02:04:17.360Z,83.90
2019-04-22T02:11:53.377Z,83.80
2019-04-22T02:14:20.581Z,84.60
2019-04-22T02:16:50.294Z,85.00
2019-04-22T02:19:25.402Z,85.20
2019-04-22T02:21:51.111Z,85.20
2019-04-22T02:24:20.162Z,84.80
2019-04-22T02:26:51.959Z,84.70
2019-04-22T02:29:27.050Z,85.30
2019-04-22T02:31:59.435Z,84.30
2019-04-22T02:36:56.217Z,83.70
2019-04-22T02:39:38.804Z,83.30
2019-04-22T02:42:00.809Z,83.40
2019-04-22T02:44:31.423Z,81.20
2019-04-22T02:49:30.647Z,83.00
2019-04-22T02:52:06.401Z,82.70
2019-04-22T02:57:04.539Z,84.80
2019-04-22T02:59:32.582Z,84.40
2019-04-22T03:02:03.340Z,84.50
2019-04-22T03:04:35.586Z,83.40
2019-04-22T03:06:59.700Z,84.60
2019-04-22T03:17:10.687Z,86.00
2019-04-22T03:22:19.270Z,87.50
2019-04-22T03:25:24.212Z,86.10
2019-04-22T03:27:17.323Z,85.30
2019-04-22T03:33:04.866Z,87.50
2019-04-22T03:50:22.011Z,88.80
2019-04-22T03:52:47.169Z,89.30
2019-04-22T03:55:16.092Z,88.50
2019-04-22T03:57:50.067Z,88.80
2019-04-22T04:00:30.334Z,89.00
2019-04-22T04:02:54.825Z,89.30
2019-04-22T04:05:33.552Z,89.40
2019-04-22T04:07:55.222Z,89.80
2019-04-22T04:13:03.326Z,90.40
2019-04-22T04:17:57.109Z,90.60
2019-04-22T04:20:34.781Z,90.40
2019-04-22T04:23:08.395Z,90.80
2019-04-22T04:25:38.005Z,90.60
2019-04-22T04:28:24.335Z,90.20
2019-04-22T04:32:57.117Z,90.20
2019-04-22T04:36:03.405Z,90.40
2019-04-22T04:37:56.190Z,89.90
2019-04-22T04:40:33.200Z,90.30
2019-04-22T04:53:19.135Z,90.10
2019-04-22T04:55:47.073Z,89.50
2019-04-22T04:58:13.910Z,87.90
2019-04-22T05:00:52.463Z,88.80
2019-04-22T05:03:13.116Z,88.80
2019-04-22T05:05:39.817Z,83.90
2019-04-22T05:08:00.488Z,79.60
2019-04-22T05:13:16.771Z,80.30
2019-04-22T05:15:55.369Z,77.90
2019-04-22T05:20:56.491Z,79.80
2019-04-22T05:23:16.236Z,80.50
2019-04-22T05:25:38.192Z,80.70
2019-04-22T05:28:11.703Z,80.80
2019-04-22T05:30:50.318Z,80.60
2019-04-22T05:33:14.358Z,80.30
2019-04-22T05:35:46.353Z,81.10
2019-04-22T05:38:17.644Z,81.40
2019-04-22T05:40:41.115Z,77.80
2019-04-22T05:43:13.989Z,77.70
2019-04-22T05:45:44.488Z,78.10
2019-04-22T05:48:18.328Z,78.50
2019-04-22T05:50:54.576Z,79.10
2019-04-22T05:53:23.545Z,78.80
2019-04-22T05:55:58.535Z,79.70
2019-04-22T05:58:24.309Z,79.60
2019-04-22T06:01:35.697Z,79.80
2019-04-22T06:03:39.430Z,79.80
2019-04-22T06:06:12.626Z,80.80
2019-04-22T06:08:40.179Z,79.60
2019-04-22T06:11:16.823Z,79.50
2019-04-22T06:13:38.831Z,80.30
2019-04-22T06:16:20.516Z,79.60
2019-04-22T06:18:47.018Z,79.50
2019-04-22T06:21:20.247Z,80.10
2019-04-22T06:23:55.891Z,80.50
2019-04-22T06:31:28.332Z,81.60
2019-04-22T06:33:58.083Z,82.30
2019-04-22T06:36:24.477Z,81.70
2019-04-22T06:38:53.298Z,82.30
2019-04-22T06:41:40.275Z,82.90
2019-04-22T06:44:00.654Z,83.10
2019-04-22T06:46:31.868Z,84.60
2019-04-22T06:49:01.396Z,84.20
2019-04-22T06:51:27.003Z,83.80
2019-04-22T06:54:00.086Z,84.70
2019-04-22T06:56:27.449Z,84.80
2019-04-22T06:59:08.518Z,85.10
2019-04-22T07:01:40.206Z,83.70
2019-04-22T07:04:08.037Z,84.90
2019-04-22T07:06:41.881Z,85.60
2019-04-22T07:11:36.480Z,85.90
2019-04-22T07:14:07.120Z,85.30
2019-04-22T07:19:18.087Z,85.70
2019-04-22T07:21:57.268Z,86.80
2019-04-22T07:24:28.280Z,86.70
2019-04-22T07:26:49.182Z,85.40
2019-04-22T07:29:17.504Z,86.30
2019-04-22T07:31:52.974Z,85.20
2019-04-22T07:34:19.649Z,85.00
2019-04-22T07:37:13.078Z,85.40
2019-04-22T07:39:15.853Z,85.60
2019-04-22T07:42:10.766Z,85.80
2019-04-22T07:46:56.483Z,85.50
2019-04-22T07:49:25.830Z,85.00
2019-04-22T07:51:50.007Z,85.30
2019-04-22T07:54:26.309Z,86.50
2019-04-22T07:57:02.947Z,86.50
2019-04-22T07:59:30.687Z,85.40
2019-04-22T08:01:55.917Z,85.30
2019-04-22T08:09:43.006Z,85.30
2019-04-22T08:11:57.869Z,85.20
2019-04-22T08:14:34.523Z,84.90
2019-04-22T08:17:14.183Z,85.00
2019-04-22T08:19:40.456Z,84.60
2019-04-22T08:22:02.800Z,84.50
2019-04-22T08:29:46.709Z,84.70
2019-04-22T08:32:05.020Z,85.40
2019-04-22T08:34:39.711Z,84.90
2019-04-22T08:39:40.419Z,83.00
2019-04-22T08:42:17.733Z,84.00
2019-04-22T08:47:21.498Z,81.90
2019-04-22T08:49:57.233Z,81.80
2019-04-22T08:52:21.108Z,82.50
2019-04-22T08:54:51.251Z,82.40
2019-04-22T08:57:25.961Z,83.50
2019-04-22T08:59:50.145Z,82.10
2019-04-22T09:02:25.863Z,82.10
2019-04-22T09:05:11.878Z,81.30
2019-04-22T09:07:38.176Z,81.10
2019-04-22T09:10:00.057Z,81.00
2019-04-22T09:14:55.304Z,80.90
2019-04-22T09:17:47.372Z,79.50
2019-04-22T09:20:00.098Z,79.50
2019-04-22T09:22:47.080Z,79.90
2019-04-22T09:25:03.736Z,79.90
2019-04-22T09:27:38.042Z,78.60
2019-04-22T09:30:06.170Z,78.50
2019-04-22T09:35:03.404Z,78.70
2019-04-22T09:37:39.294Z,77.90
2019-04-22T09:40:20.246Z,76.60
2019-04-22T09:42:43.826Z,78.80
2019-04-22T09:45:11.316Z,78.80
2019-04-22T09:47:53.628Z,77.50
2019-04-22T09:50:15.354Z,78.20
2019-04-22T09:52:48.943Z,79.00
2019-04-22T09:55:16.714Z,77.10
2019-04-22T09:57:46.995Z,77.80
2019-04-22T10:00:25.313Z,77.20
2019-04-22T10:02:56.930Z,75.40
2019-04-22T10:05:29.223Z,75.40
2019-04-22T10:08:03.258Z,75.00
2019-04-22T10:10:27.033Z,74.40
2019-04-22T10:12:53.987Z,73.90
2019-04-22T10:15:25.795Z,73.30
2019-04-22T10:17:58.224Z,73.30
2019-04-22T10:20:31.417Z,73.70
2019-04-22T10:23:07.977Z,73.20
2019-04-22T10:25:35.362Z,72.20
2019-04-22T10:28:09.209Z,72.80
2019-04-22T10:30:45.541Z,73.40
2019-04-22T10:32:59.428Z,73.10
2019-04-22T10:35:18.296Z,72.80
2019-04-22T10:37:42.903Z,71.90
2019-04-22T10:40:21.761Z,71.50
2019-04-22T10:42:51.438Z,73.20
2019-04-22T10:45:21.949Z,72.80
2019-04-22T10:47:52.249Z,71.50
2019-04-22T10:50:26.052Z,71.40
2019-04-22T10:52:55.311Z,73.20
2019-04-22T10:55:25.433Z,71.20
2019-04-22T10:57:54.809Z,72.80
2019-04-22T11:00:25.305Z,72.40
2019-04-22T11:02:54.378Z,71.50
2019-04-22T11:05:24.094Z,73.30
2019-04-22T11:07:59.032Z,72.70
2019-04-22T11:10:36.783Z,72.20
2019-04-22T11:12:54.790Z,72.10
2019-04-22T11:15:24.500Z,72.20
2019-04-22T11:17:53.623Z,74.00
2019-04-22T11:20:23.797Z,73.10
2019-04-22T11:22:53.107Z,70.60
2019-04-22T11:25:23.450Z,72.10
2019-04-22T11:27:53.703Z,72.50
2019-04-22T11:30:25.951Z,71.80
2019-04-22T11:32:54.392Z,71.80
2019-04-22T11:35:23.854Z,71.90
2019-04-22T11:37:53.041Z,72.90
2019-04-22T11:40:28.528Z,74.20
2019-04-22T11:42:54.297Z,71.70
2019-04-22T11:45:23.643Z,72.00
2019-04-22T11:47:53.100Z,71.60
2019-04-22T11:50:24.213Z,71.80
2019-04-22T11:52:54.996Z,71.50
2019-04-22T11:55:26.852Z,72.30
2019-04-22T11:57:56.256Z,70.90
2019-04-22T12:00:30.837Z,71.60
2019-04-22T12:03:00.835Z,70.40
2019-04-22T12:05:30.284Z,71.90
2019-04-22T12:07:59.369Z,71.80
2019-04-22T12:10:36.671Z,69.80
2019-04-22T12:13:01.930Z,71.80
2019-04-22T12:15:31.202Z,70.20
2019-04-22T12:18:01.478Z,69.70
2019-04-22T12:20:30.549Z,70.80
2019-04-22T12:23:01.025Z,71.10
2019-04-22T12:25:42.325Z,71.70
2019-04-22T12:28:03.344Z,70.70
2019-04-22T12:30:33.398Z,70.10
2019-04-22T12:33:02.606Z,70.30
2019-04-22T12:35:32.742Z,69.30
2019-04-22T12:38:06.491Z,68.80
2019-04-22T12:40:40.799Z,69.50
2019-04-22T12:43:05.863Z,70.30
2019-04-22T12:45:34.224Z,67.30
2019-04-22T12:48:04.232Z,66.70
2019-04-22T12:50:37.227Z,65.60
2019-04-22T12:53:10.437Z,66.90
2019-04-22T12:55:34.906Z,68.60
2019-04-22T12:58:05.326Z,67.80
2019-04-22T13:00:36.223Z,66.60
2019-04-22T13:03:05.369Z,68.30
2019-04-22T13:05:35.274Z,67.70
2019-04-22T13:08:05.634Z,70.00
2019-04-22T13:10:45.656Z,67.40
2019-04-22T13:13:09.187Z,68.90
2019-04-22T13:15:39.218Z,67.60
2019-04-22T13:18:17.089Z,66.70
2019-04-22T13:20:39.182Z,68.20
2019-04-22T13:23:09.426Z,67.10
2019-04-22T13:25:38.965Z,68.10
2019-04-22T13:28:09.384Z,69.40
2019-04-22T13:30:38.720Z,69.30
2019-04-22T13:33:07.807Z,69.50
2019-04-22T13:35:36.857Z,69.40
2019-04-22T13:38:06.925Z,69.40
2019-04-22T13:40:37.084Z,70.90
2019-04-22T13:43:07.104Z,70.50
2019-04-22T13:45:36.290Z,72.00
2019-04-22T13:48:21.988Z,71.50
2019-04-22T13:51:05.705Z,70.50
2019-04-22T13:58:18.520Z,70.30
2019-04-22T14:00:40.490Z,70.70
2019-04-22T14:03:41.593Z,69.20
2019-04-22T14:06:13.053Z,68.90
2019-04-22T14:08:43.132Z,67.30
2019-04-22T14:11:23.305Z,69.30
2019-04-22T14:13:43.847Z,69.20
2019-04-22T14:16:13.294Z,68.50
2019-04-22T14:18:44.594Z,69.30
2019-04-22T14:21:14.795Z,68.50
2019-04-22T14:23:44.722Z,66.60
2019-04-22T14:26:15.465Z,67.30
2019-04-22T14:28:45.895Z,66.90
2019-04-22T14:31:15.051Z,67.10
2019-04-22T14:33:46.609Z,69.60
2019-04-22T14:36:15.193Z,67.80
2019-04-22T14:38:44.319Z,67.30
2019-04-22T14:41:32.757Z,68.30
2019-04-22T14:44:49.497Z,68.10
2019-04-22T14:46:39.403Z,67.90
2019-04-22T14:49:11.828Z,69.70
2019-04-22T14:51:42.805Z,67.80
2019-04-22T14:54:08.586Z,68.60
2019-04-22T14:56:18.163Z,68.00
2019-04-22T14:58:47.122Z,68.80
2019-04-22T15:01:17.025Z,68.60
2019-04-22T15:03:48.374Z,69.30
2019-04-22T15:06:18.159Z,69.60
2019-04-22T15:08:47.304Z,69.70
2019-04-22T15:11:24.469Z,68.40
2019-04-22T15:13:53.620Z,68.80
2019-04-22T15:16:55.052Z,67.60
2019-04-22T15:19:33.772Z,68.40
2019-04-22T15:22:03.122Z,67.40
2019-04-22T15:24:32.279Z,67.50
2019-04-22T15:27:02.595Z,68.30
2019-04-22T15:29:31.767Z,67.90
2019-04-22T15:32:00.747Z,67.20
2019-04-22T15:34:30.661Z,67.40
2019-04-22T15:37:00.168Z,65.70
2019-04-22T15:39:29.385Z,67.70
2019-04-22T15:42:11.326Z,66.60
2019-04-22T15:44:30.452Z,66.90
2019-04-22T15:47:00.909Z,65.10
2019-04-22T15:49:30.174Z,66.10
2019-04-22T15:52:01.132Z,65.70
2019-04-22T15:54:29.947Z,64.10
2019-04-22T15:57:02.158Z,64.00
2019-04-22T15:59:52.660Z,62.70
2019-04-22T16:02:04.011Z,62.00
2019-04-22T16:04:32.918Z,63.20
2019-04-22T16:07:03.269Z,64.30
2019-04-22T16:09:33.273Z,65.50
2019-04-22T16:12:15.102Z,64.50
2019-04-22T16:14:41.083Z,65.50
2019-04-22T16:17:04.441Z,65.20
2019-04-22T16:19:36.954Z,65.50
2019-04-22T16:22:11.152Z,64.80
2019-04-22T16:24:52.389Z,65.90
2019-04-22T16:27:24.673Z,66.10
2019-04-22T16:29:55.183Z,66.00
2019-04-22T16:32:25.452Z,65.30
2019-04-22T16:34:54.758Z,65.00
2019-04-22T16:37:24.951Z,65.50
2019-04-22T16:39:54.708Z,65.20
2019-04-22T16:42:34.122Z,65.80
2019-04-22T16:44:55.443Z,63.60
2019-04-22T16:47:25.706Z,64.60
2019-04-22T16:49:55.344Z,65.00
2019-04-22T16:52:25.850Z,64.30
2019-04-22T16:54:55.080Z,63.90
2019-04-22T16:57:24.081Z,64.50
2019-04-22T16:59:53.125Z,64.30
2019-04-22T17:02:52.199Z,65.10
2019-04-22T17:05:43.381Z,64.30
2019-04-22T17:08:12.521Z,64.60
2019-04-22T17:10:41.931Z,63.40
2019-04-22T17:13:17.511Z,65.00
2019-04-22T17:15:41.832Z,64.70
2019-04-22T17:18:10.774Z,65.50
2019-04-22T17:20:40.461Z,66.30
2019-04-22T17:23:09.777Z,65.50
2019-04-22T17:25:38.821Z,65.70
2019-04-22T17:28:07.924Z,65.90
2019-04-22T17:30:37.075Z,66.20
2019-04-22T17:33:06.092Z,67.30
2019-04-22T17:35:36.027Z,67.50
2019-04-22T17:38:16.335Z,67.30
2019-04-22T17:40:52.301Z,67.50
2019-04-22T17:43:36.623Z,67.50
2019-04-22T17:46:00.178Z,67.70
2019-04-22T17:48:49.146Z,68.10
2019-04-22T17:51:29.991Z,68.10
2019-04-22T17:53:56.658Z,67.80
2019-04-22T17:56:21.950Z,68.60
2019-04-22T17:58:51.169Z,67.70
2019-04-22T18:01:28.177Z,68.20
2019-04-22T18:03:40.963Z,68.20
2019-04-22T18:06:13.772Z,68.00
2019-04-22T18:08:54.964Z,68.80
2019-04-22T18:11:33.381Z,68.70
2019-04-22T18:14:00.168Z,68.70
2019-04-22T18:16:30.535Z,69.00
2019-04-22T18:19:00.607Z,68.30
2019-04-22T18:21:23.174Z,68.50
2019-04-22T18:23:49.582Z,68.20
2019-04-22T18:26:28.898Z,68.40
2019-04-22T18:29:02.216Z,69.20
2019-04-22T18:31:23.679Z,68.30
2019-04-22T18:33:58.061Z,69.20
2019-04-22T18:36:29.290Z,68.40
2019-04-22T18:39:11.473Z,68.00
2019-04-22T18:41:36.877Z,67.80
2019-04-22T18:44:06.173Z,68.00
2019-04-22T18:46:37.067Z,66.80
2019-04-22T18:49:07.779Z,67.30
2019-04-22T18:51:42.420Z,66.30
2019-04-22T18:54:33.409Z,66.60
2019-04-22T18:57:02.630Z,66.90
2019-04-22T18:59:22.530Z,67.00
2019-04-22T19:01:48.128Z,67.10
2019-04-22T19:04:26.558Z,67.70
2019-04-22T19:07:12.139Z,67.20
2019-04-22T19:09:51.644Z,67.20
2019-04-22T19:12:25.711Z,67.40
2019-04-22T19:14:54.986Z,67.10
2019-04-22T19:17:27.185Z,66.90
2019-04-22T19:19:49.991Z,68.40
2019-04-22T19:22:19.525Z,67.60
2019-04-22T19:24:41.827Z,67.90
2019-04-22T19:27:15.724Z,67.80
2019-04-22T19:29:53.994Z,68.70
2019-04-22T19:32:20.570Z,68.40
2019-04-22T19:34:51.367Z,69.00
2019-04-22T19:37:17.314Z,69.80
2019-04-22T19:40:01.167Z,67.80
2019-04-22T19:42:30.499Z,69.20
2019-04-22T19:44:53.233Z,70.40
2019-04-22T19:50:01.083Z,68.40
2019-04-22T19:52:28.821Z,70.00
2019-04-22T19:54:58.328Z,69.60
2019-04-22T19:57:22.432Z,69.70
2019-04-22T19:59:55.894Z,68.70
2019-04-22T20:03:09.377Z,68.60
2019-04-22T20:05:37.438Z,68.10
2019-04-22T20:08:07.311Z,68.10
2019-04-22T20:10:30.015Z,68.90
2019-04-22T20:13:03.299Z,69.50
2019-04-22T20:15:29.238Z,70.40
2019-04-22T20:20:42.185Z,69.10
2019-04-22T20:23:06.702Z,69.00
2019-04-22T20:25:34.929Z,69.20
2019-04-22T20:28:15.087Z,69.20
2019-04-22T20:30:39.720Z,69.10
2019-04-22T20:33:13.868Z,70.50
2019-04-22T20:35:43.673Z,71.00
2019-04-22T20:38:14.921Z,71.90
2019-04-22T20:40:44.027Z,70.30
2019-04-22T20:43:22.097Z,71.20
2019-04-22T20:45:46.451Z,71.30
2019-04-22T20:48:06.052Z,71.60
2019-04-22T20:50:48.079Z,72.70
2019-04-22T20:53:28.121Z,71.50
2019-04-22T20:55:52.503Z,72.80
2019-04-22T20:58:21.311Z,72.60
2019-04-22T21:00:45.290Z,72.50
2019-04-22T21:03:13.723Z,73.90
2019-04-22T21:05:46.030Z,74.30
2019-04-22T21:08:28.919Z,74.20
2019-04-22T21:10:47.754Z,74.90
2019-04-22T21:13:20.639Z,75.20
2019-04-22T21:15:59.217Z,75.50
2019-04-22T21:18:26.576Z,75.90
2019-04-22T21:21:04.282Z,76.10
2019-04-22T21:23:23.227Z,76.60
2019-04-22T21:26:00.888Z,76.80
2019-04-22T21:28:34.222Z,77.40
2019-04-22T21:30:56.807Z,77.50
2019-04-22T21:33:26.917Z,78.30
2019-04-22T21:38:34.227Z,78.80
2019-04-22T21:41:08.233Z,79.50
2019-04-22T21:43:40.337Z,79.40
2019-04-22T21:46:09.148Z,79.90
2019-04-22T21:48:52.794Z,79.90
2019-04-22T21:51:16.551Z,81.00
2019-04-22T21:53:43.503Z,81.00
2019-04-22T21:56:29.045Z,80.90
2019-04-22T21:58:53.111Z,81.00
2019-04-22T22:03:55.792Z,80.90
2019-04-22T22:06:15.215Z,83.40
2019-04-22T22:08:56.782Z,82.00
2019-04-22T22:11:27.748Z,82.20
2019-04-22T22:14:04.623Z,82.50
2019-04-22T22:16:25.082Z,83.10
2019-04-22T22:19:00.958Z,82.40
2019-04-22T22:21:55.460Z,82.70
2019-04-22T22:24:05.684Z,83.00
2019-04-22T22:26:35.119Z,82.10
2019-04-22T22:29:15.671Z,82.30
2019-04-22T22:31:43.240Z,81.90
2019-04-22T22:34:10.955Z,81.70
2019-04-22T22:36:29.619Z,82.00
2019-04-22T22:39:01.659Z,81.60
2019-04-22T22:41:16.813Z,81.50
2019-04-22T22:43:51.022Z,81.80
2019-04-22T22:46:29.301Z,81.50
2019-04-22T22:49:09.964Z,81.50
2019-04-22T22:51:51.811Z,81.90
2019-04-22T22:54:14.683Z,82.20
2019-04-22T22:56:47.484Z,82.40
2019-04-22T22:59:10.296Z,81.90
2019-04-22T23:01:45.363Z,81.70
2019-04-22T23:04:17.990Z,81.60
2019-04-22T23:06:45.526Z,81.80
2019-04-22T23:09:14.583Z,82.10
2019-04-22T23:14:16.612Z,82.20
2019-04-22T23:16:37.422Z,82.70
2019-04-22T23:19:06.471Z,82.60
2019-04-22T23:21:41.685Z,82.70
2019-04-22T23:24:26.514Z,82.90
2019-04-22T23:27:10.387Z,83.20
2019-04-22T23:29:57.490Z,83.80
2019-04-22T23:32:31.957Z,83.70
2019-04-22T23:35:15.373Z,83.80
2019-04-22T23:37:47.041Z,84.00
2019-04-22T23:40:21.806Z,84.10
2019-04-22T23:42:55.839Z,84.10
2019-04-22T23:45:22.584Z,84.50
2019-04-22T23:47:39.055Z,84.70
2019-04-22T23:50:19.675Z,85.00
2019-04-22T23:52:58.839Z,85.20
2019-04-22T23:55:32.439Z,85.30
2019-04-22T23:58:09.584Z,85.30
